TimePDT,TemperatureF,Dew PointF,Humidity,Sea Level PressureIn,VisibilityMPH,Wind Direction,Wind SpeedMPH,Gust SpeedMPH,PrecipitationIn,Events,Conditions,WindDirDegrees,DateUTC
2:35 AM,53.6,46.4,77,30.20,10.0,NNE,9.2,-,0.00,,Clear,20,2012-10-02 09:35:00
2:55 AM,51.8,46.4,82,30.19,10.0,North,10.4,-,0.00,,Clear,10,2012-10-02 09:55:00
3:15 AM,51.8,44.6,76,30.19,10.0,NE,6.9,-,0.00,,Clear,40,2012-10-02 10:15:00
3:35 AM,51.8,44.6,76,30.20,10.0,NE,5.8,-,0.00,,Clear,50,2012-10-02 10:35:00
3:55 AM,51.8,44.6,76,30.20,10.0,NNE,6.9,-,0.00,,Clear,30,2012-10-02 10:55:00
4:15 AM,51.8,42.8,71,30.20,10.0,NNE,5.8,-,0.00,,Scattered Clouds,20,2012-10-02 11:15:00
4:35 AM,51.8,41.0,67,30.20,10.0,North,6.9,-,0.00,,Partly Cloudy,360,2012-10-02 11:35:00
4:55 AM,51.8,39.2,62,30.20,10.0,North,8.1,-,0.00,,Clear,360,2012-10-02 11:55:00
5:15 AM,50.0,41.0,71,30.21,10.0,NNE,5.8,-,0.00,,Clear,20,2012-10-02 12:15:00
5:35 AM,48.2,41.0,76,30.21,10.0,NNE,4.6,-,0.00,,Clear,20,2012-10-02 12:35:00
6:15 AM,46.4,39.2,76,30.21,10.0,NE,4.6,-,0.00,,Clear,40,2012-10-02 13:15:00
6:35 AM,50.0,39.2,66,30.20,10.0,North,8.1,-,0.00,,Clear,350,2012-10-02 13:35:00
6:55 AM,51.8,37.4,58,30.20,10.0,North,11.5,-,0.00,,Clear,360,2012-10-02 13:55:00
7:15 AM,50.0,37.4,62,30.20,4.0,North,8.1,-,0.00,,Clear,10,2012-10-02 14:15:00
7:35 AM,48.2,37.4,66,30.21,10.0,North,6.9,-,0.00,,Clear,10,2012-10-02 14:35:00
7:55 AM,50.0,35.6,58,30.21,9.0,North,6.9,-,0.00,,Clear,360,2012-10-02 14:55:00
8:15 AM,51.8,35.6,54,30.22,10.0,North,5.8,-,0.00,,Clear,10,2012-10-02 15:15:00
8:35 AM,51.8,35.6,54,30.21,10.0,NNE,8.1,-,0.00,,Clear,30,2012-10-02 15:35:00
8:55 AM,53.6,35.6,51,30.22,9.0,North,9.2,-,0.00,,Clear,360,2012-10-02 15:55:00
9:15 AM,55.4,35.6,47,30.22,9.0,North,9.2,-,0.00,,Clear,360,2012-10-02 16:15:00
9:35 AM,55.4,35.6,47,30.22,10.0,North,9.2,-,0.00,,Clear,360,2012-10-02 16:35:00
9:55 AM,55.4,33.8,44,30.22,10.0,NNW,13.8,19.6,0.00,,Clear,340,2012-10-02 16:55:00
10:15 AM,55.4,35.6,47,30.22,10.0,North,12.7,16.1,0.00,,Clear,360,2012-10-02 17:15:00
10:35 AM,55.4,35.6,47,30.22,9.0,North,11.5,-,0.00,,Partly Cloudy,360,2012-10-02 17:35:00
10:55 AM,55.4,35.6,47,30.23,10.0,North,12.7,19.6,0.00,,Clear,360,2012-10-02 17:55:00
11:15 AM,57.2,35.6,44,30.23,10.0,North,18.4,-,0.00,,Clear,360,2012-10-02 18:15:00
11:35 AM,57.2,33.8,41,30.22,9.0,NNW,16.1,24.2,0.00,,Clear,340,2012-10-02 18:35:00
11:55 AM,57.2,33.8,41,30.22,4.0,North,21.9,25.3,0.00,,Partly Cloudy,350,2012-10-02 18:55:00
12:15 PM,57.2,33.8,41,30.22,10.0,NNW,18.4,27.6,0.00,,Partly Cloudy,340,2012-10-02 19:15:00
12:35 PM,57.2,35.6,44,30.23,10.0,North,21.9,28.8,0.00,,Clear,10,2012-10-02 19:35:00
12:55 PM,57.2,35.6,44,30.23,10.0,NNW,18.4,26.5,0.00,,Clear,340,2012-10-02 19:55:00
1:15 PM,57.2,37.4,48,30.22,10.0,North,19.6,26.5,0.00,,Clear,360,2012-10-02 20:15:00
1:35 PM,57.2,39.2,51,30.22,10.0,NNW,16.1,24.2,0.00,,Clear,330,2012-10-02 20:35:00
1:55 PM,57.2,39.2,51,30.22,10.0,NNW,19.6,23.0,0.00,,Clear,330,2012-10-02 20:55:00
2:15 PM,57.2,39.2,51,30.21,10.0,NNW,17.3,24.2,0.00,,Clear,330,2012-10-02 21:15:00
2:35 PM,57.2,39.2,51,30.21,8.0,NW,20.7,24.2,0.00,,Clear,310,2012-10-02 21:35:00
2:55 PM,59.0,41.0,51,30.21,9.0,NW,21.9,-,0.00,,Clear,310,2012-10-02 21:55:00
3:15 PM,57.2,42.8,59,30.22,10.0,NNW,11.5,-,0.00,,Clear,340,2012-10-02 22:15:00
3:35 PM,57.2,42.8,59,30.22,10.0,NW,15.0,19.6,0.00,,Clear,320,2012-10-02 22:35:00
3:55 PM,57.2,42.8,59,30.22,10.0,WNW,15.0,-,0.00,,Clear,300,2012-10-02 22:55:00
4:15 PM,57.2,42.8,59,30.22,10.0,NW,13.8,-,0.00,,Clear,310,2012-10-02 23:15:00
4:35 PM,57.2,44.6,63,30.22,10.0,WNW,11.5,17.3,0.00,,Clear,300,2012-10-02 23:35:00
4:55 PM,57.2,44.6,63,30.22,10.0,WNW,13.8,-,0.00,,Clear,300,2012-10-02 23:55:00
5:15 PM,55.4,44.6,67,30.22,1.8,WNW,12.7,18.4,0.00,,Clear,300,2012-10-03 00:15:00
5:35 PM,55.4,44.6,67,30.21,10.0,WNW,6.9,-,0.00,,Clear,300,2012-10-03 00:35:00
5:55 PM,55.4,44.6,67,30.22,10.0,WNW,9.2,-,0.00,,Clear,300,2012-10-03 00:55:00
6:15 PM,53.6,46.4,77,30.22,10.0,WNW,9.2,-,0.00,,Clear,300,2012-10-03 01:15:00
6:35 PM,53.6,46.4,77,30.23,10.0,WNW,6.9,-,0.00,,Clear,300,2012-10-03 01:35:00
7:15 PM,51.8,46.4,82,30.24,10.0,WNW,6.9,-,0.00,,Clear,300,2012-10-03 02:15:00
7:35 PM,51.8,48.2,88,30.23,10.0,NW,11.5,-,0.00,,Clear,310,2012-10-03 02:35:00
8:15 PM,51.8,48.2,88,30.24,10.0,NNW,13.8,17.3,0.00,,Clear,330,2012-10-03 03:15:00
8:35 PM,51.8,46.4,82,30.25,10.0,NNW,15.0,-,0.00,,Clear,330,2012-10-03 03:35:00
8:55 PM,53.6,46.4,77,30.25,10.0,NNW,15.0,-,0.00,,Clear,330,2012-10-03 03:55:00
9:15 PM,53.6,46.4,77,30.26,10.0,NNW,16.1,-,0.00,,Clear,330,2012-10-03 04:15:00
9:35 PM,51.8,46.4,82,30.26,10.0,NNW,17.3,-,0.00,,Clear,330,2012-10-03 04:35:00
9:55 PM,51.8,44.6,76,30.27,10.0,NNW,12.7,-,0.00,,Clear,330,2012-10-03 04:55:00
10:15 PM,51.8,46.4,82,30.27,10.0,NW,15.0,-,0.00,,Clear,320,2012-10-03 05:15:00
10:35 PM,51.8,46.4,82,30.28,10.0,NNW,11.5,-,0.00,,Clear,330,2012-10-03 05:35:00
11:55 PM,48.2,39.2,71,30.31,10.0,NE,6.9,-,0.00,,Clear,50,2012-10-03 06:55:00